Time;durP1;ratioP1;P1;durP2;ratioP2;P2;SDS_P1;SDS_P2;PMS_P1;PMS_P2;Temp;Humidity;BMP_temperature;BMP_pressure;BME280_temperature;BME280_humidity;BME280_pressure;Samples;Min_cycle;Max_cycle;Signal;HPM_P1;HPM_P2
2022/05/08 00:01:18;;;;;;;10.17;2.73;;;6.70;91.70;;;;;;5081466;28;20229;-78
2022/05/08 00:03:45;;;;;;;11.73;2.97;;;6.60;91.80;;;;;;5078655;28;20250;-78
2022/05/08 00:06:13;;;;;;;11.47;4.17;;;6.60;91.90;;;;;;5079488;28;20232;-78
2022/05/08 00:08:39;;;;;;;13.37;3.77;;;6.60;92.00;;;;;;5076048;28;20263;-78
2022/05/08 00:11:07;;;;;;;11.20;3.20;;;6.50;92.00;;;;;;5079181;28;20223;-78
2022/05/08 00:13:35;;;;;;;11.30;3.30;;;6.50;92.10;;;;;;5074031;28;20225;-76
2022/05/08 00:16:02;;;;;;;10.00;3.00;;;6.50;92.30;;;;;;5081872;28;21084;-77
2022/05/08 00:18:29;;;;;;;10.63;3.23;;;6.40;92.40;;;;;;5084911;28;20225;-79
2022/05/08 00:20:55;;;;;;;10.77;3.03;;;6.40;92.50;;;;;;5086240;28;20225;-79
2022/05/08 00:23:23;;;;;;;10.63;3.00;;;6.30;92.70;;;;;;5084712;28;20575;-79
2022/05/08 00:25:50;;;;;;;13.23;3.40;;;6.30;92.80;;;;;;5083044;28;20228;-78
2022/05/08 00:28:17;;;;;;;10.33;2.93;;;6.30;92.80;;;;;;5088430;28;20229;-79
2022/05/08 00:30:44;;;;;;;12.07;2.87;;;6.20;93.00;;;;;;5088831;28;20828;-79
2022/05/08 00:33:10;;;;;;;12.63;2.47;;;6.20;93.10;;;;;;5088546;28;20882;-79
2022/05/08 00:35:37;;;;;;;12.50;2.73;;;6.10;93.00;;;;;;5084718;28;20236;-79
2022/05/08 00:38:04;;;;;;;13.03;2.60;;;6.10;93.00;;;;;;5070909;28;20803;-80
2022/05/08 00:40:35;;;;;;;13.20;2.87;;;6.10;93.30;;;;;;5087572;28;20240;-80
2022/05/08 00:43:34;;;;;;;12.73;2.90;;;6.00;93.50;;;;;;5086499;28;20698;-78
2022/05/08 00:46:02;;;;;;;13.40;2.90;;;6.00;93.90;;;;;;5087988;28;20327;-78
2022/05/08 00:48:30;;;;;;;13.50;3.07;;;6.00;93.60;;;;;;5080264;28;20226;-78
2022/05/08 00:50:58;;;;;;;12.90;2.77;;;5.90;93.70;;;;;;5071587;28;20222;-78
2022/05/08 00:53:27;;;;;;;11.17;2.90;;;5.90;93.70;;;;;;5080420;28;20234;-78
2022/05/08 00:55:57;;;;;;;12.80;3.27;;;5.80;93.90;;;;;;5086781;28;20704;-78
2022/05/08 00:58:24;;;;;;;14.97;3.53;;;5.80;94.40;;;;;;5081399;28;20567;-78
2022/05/08 01:00:51;;;;;;;9.17;3.20;;;5.80;94.00;;;;;;5085117;28;20225;-79
2022/05/08 01:03:17;;;;;;;10.10;2.70;;;5.80;94.00;;;;;;5085158;28;20252;-77
2022/05/08 01:05:45;;;;;;;15.00;3.50;;;5.70;94.10;;;;;;5086365;28;20875;-77
2022/05/08 01:08:13;;;;;;;9.23;2.73;;;5.70;94.30;;;;;;5086359;28;20229;-78
2022/05/08 01:10:40;;;;;;;9.53;3.60;;;5.70;94.40;;;;;;5083146;28;20248;-78
2022/05/08 01:13:08;;;;;;;10.23;3.37;;;5.60;94.40;;;;;;5086972;28;20246;-77
2022/05/08 01:15:43;;;;;;;11.53;2.40;;;5.60;94.60;;;;;;5084216;28;20237;-78
2022/05/08 01:18:12;;;;;;;8.43;2.50;;;5.50;94.80;;;;;;5083210;28;20245;-78
2022/05/08 01:20:40;;;;;;;9.23;2.67;;;5.50;94.50;;;;;;5085277;28;20277;-78
2022/05/08 01:23:09;;;;;;;12.47;3.40;;;5.50;94.50;;;;;;5080631;28;20647;-79
2022/05/08 01:25:44;;;;;;;9.17;3.20;;;5.40;94.70;;;;;;5083164;28;20675;-78
2022/05/08 01:28:11;;;;;;;9.93;3.13;;;5.40;94.80;;;;;;5085894;28;20225;-77
2022/05/08 01:30:39;;;;;;;10.27;3.07;;;5.30;94.70;;;;;;5085991;28;20735;-78
2022/05/08 01:33:06;;;;;;;9.47;3.27;;;5.30;95.00;;;;;;5081530;28;20289;-78
2022/05/08 01:35:33;;;;;;;10.33;2.90;;;5.30;95.10;;;;;;5085103;28;20230;-78
2022/05/08 01:38:00;;;;;;;9.03;2.87;;;5.20;95.20;;;;;;5087814;28;20233;-77
2022/05/08 01:40:30;;;;;;;16.87;2.87;;;5.20;95.20;;;;;;5075989;28;20227;-78
2022/05/08 01:42:57;;;;;;;9.03;2.97;;;5.20;95.30;;;;;;5076892;28;20793;-77
2022/05/08 01:45:25;;;;;;;11.53;3.10;;;5.20;95.40;;;;;;5073330;28;20238;-78
2022/05/08 01:50:36;;;;;;;10.97;3.20;;;5.10;95.60;;;;;;5085767;28;20236;-78
2022/05/08 01:53:03;;;;;;;9.23;3.80;;;5.10;95.70;;;;;;5083891;28;20662;-78
2022/05/08 01:55:32;;;;;;;10.00;2.90;;;5.00;95.80;;;;;;5085944;28;20291;-77
2022/05/08 01:58:00;;;;;;;13.63;3.13;;;5.00;96.00;;;;;;5085575;28;20228;-78
2022/05/08 02:00:27;;;;;;;11.93;3.43;;;5.00;96.00;;;;;;5075648;28;20261;-77
2022/05/08 02:02:54;;;;;;;13.77;2.93;;;5.00;95.80;;;;;;5083508;28;20217;-77
2022/05/08 02:05:22;;;;;;;11.17;3.20;;;4.90;96.00;;;;;;5082593;28;20238;-78
2022/05/08 02:07:49;;;;;;;8.57;2.63;;;4.90;96.10;;;;;;5086651;28;20229;-78
2022/05/08 02:10:17;;;;;;;8.07;3.50;;;4.80;96.10;;;;;;5085586;28;20241;-78
2022/05/08 02:12:46;;;;;;;13.27;4.03;;;4.80;96.30;;;;;;5087931;28;20237;-78
2022/05/08 02:15:13;;;;;;;9.97;2.87;;;4.80;96.30;;;;;;5086666;28;20221;-78
2022/05/08 02:17:40;;;;;;;13.30;3.17;;;4.80;96.30;;;;;;5086325;28;20283;-78
2022/05/08 02:20:09;;;;;;;10.43;4.07;;;4.70;96.30;;;;;;5089334;28;20705;-79
2022/05/08 02:22:37;;;;;;;12.87;2.93;;;4.70;96.50;;;;;;5084529;28;20234;-79
2022/05/08 02:25:04;;;;;;;15.17;3.60;;;4.70;96.50;;;;;;5080684;28;20606;-79
2022/05/08 02:27:36;;;;;;;12.57;3.23;;;4.60;96.50;;;;;;5081321;28;20786;-78
2022/05/08 02:30:07;;;;;;;8.87;2.43;;;4.60;96.80;;;;;;5079509;28;20985;-78
2022/05/08 02:32:33;;;;;;;10.33;2.70;;;4.50;96.70;;;;;;5074950;28;21186;-78
2022/05/08 02:35:00;;;;;;;11.20;3.03;;;4.50;96.70;;;;;;5084436;28;20228;-78
2022/05/08 02:37:27;;;;;;;12.27;3.60;;;4.50;96.80;;;;;;5080130;28;20635;-79
2022/05/08 02:39:54;;;;;;;10.73;3.53;;;4.40;96.90;;;;;;5079386;28;20216;-79
2022/05/08 02:42:21;;;;;;;8.03;3.10;;;4.40;96.90;;;;;;5084065;28;20251;-79
2022/05/08 02:44:48;;;;;;;7.53;3.00;;;4.40;97.00;;;;;;5087062;28;20225;-78
2022/05/08 02:47:15;;;;;;;18.70;3.20;;;4.40;97.10;;;;;;5085983;28;20262;-79
2022/05/08 02:49:42;;;;;;;12.63;3.40;;;4.40;97.20;;;;;;5080416;28;20308;-79
2022/05/08 02:52:09;;;;;;;10.73;2.97;;;4.30;97.60;;;;;;5082489;28;20294;-79
2022/05/08 02:54:35;;;;;;;10.03;2.77;;;4.30;97.40;;;;;;5097650;28;20776;-79
2022/05/08 02:59:46;;;;;;;7.83;3.10;;;4.20;97.40;;;;;;5078647;28;20358;-78
2022/05/08 03:02:17;;;;;;;10.67;3.23;;;4.20;97.30;;;;;;5080837;28;20235;-79
2022/05/08 03:04:45;;;;;;;10.97;3.37;;;4.20;97.50;;;;;;5076916;28;20891;-79
2022/05/08 03:07:12;;;;;;;9.83;2.47;;;4.10;97.60;;;;;;5080547;28;20255;-78
2022/05/08 03:09:38;;;;;;;12.27;3.27;;;4.10;97.60;;;;;;5077833;28;20230;-78
2022/05/08 03:12:06;;;;;;;10.73;3.27;;;4.10;97.70;;;;;;5078876;28;20236;-79
2022/05/08 03:14:32;;;;;;;15.73;3.40;;;4.10;97.70;;;;;;5083015;28;20599;-79
2022/05/08 03:16:59;;;;;;;10.60;3.10;;;4.00;97.70;;;;;;5080129;28;20233;-79
2022/05/08 03:19:29;;;;;;;15.57;3.30;;;4.00;97.80;;;;;;5081124;28;20225;-78
2022/05/08 03:21:56;;;;;;;10.93;3.40;;;4.00;97.80;;;;;;5083740;28;20240;-78
2022/05/08 03:24:22;;;;;;;7.17;2.77;;;4.00;97.70;;;;;;5082522;28;20230;-77
2022/05/08 03:26:49;;;;;;;12.37;3.20;;;3.90;97.70;;;;;;5086529;28;20216;-77
2022/05/08 03:29:15;;;;;;;8.60;3.27;;;3.90;97.70;;;;;;5077443;28;20253;-78
2022/05/08 03:31:43;;;;;;;10.10;3.30;;;3.90;97.70;;;;;;5079590;28;20236;-77
2022/05/08 03:34:10;;;;;;;13.87;3.20;;;3.80;97.70;;;;;;5078536;28;20232;-77
2022/05/08 03:36:38;;;;;;;10.23;2.97;;;3.80;97.70;;;;;;5077297;28;20602;-77
2022/05/08 03:39:05;;;;;;;9.57;3.67;;;3.70;97.80;;;;;;5087388;28;20275;-77
2022/05/08 03:41:31;;;;;;;14.17;3.50;;;3.70;97.70;;;;;;5079837;28;20210;-78
2022/05/08 03:43:58;;;;;;;10.67;3.00;;;3.70;97.70;;;;;;5076821;28;20209;-77
2022/05/08 03:46:25;;;;;;;8.57;3.20;;;3.60;97.80;;;;;;5075225;28;20727;-77
2022/05/08 03:48:51;;;;;;;12.80;4.33;;;3.70;97.90;;;;;;5075485;28;20706;-77
2022/05/08 03:51:18;;;;;;;16.43;3.67;;;3.60;98.00;;;;;;5074694;28;20215;-77
2022/05/08 03:53:46;;;;;;;6.17;2.80;;;3.60;98.10;;;;;;5077244;28;20576;-77
2022/05/08 03:56:13;;;;;;;10.73;2.60;;;3.60;97.90;;;;;;5075594;28;20218;-77
2022/05/08 03:58:40;;;;;;;9.03;3.13;;;3.60;97.60;;;;;;5079447;28;20225;-78
2022/05/08 04:01:07;;;;;;;8.60;3.07;;;3.60;97.60;;;;;;5075649;28;20296;-77
2022/05/08 04:03:33;;;;;;;6.77;3.00;;;3.60;97.90;;;;;;5076223;28;20232;-77
2022/05/08 04:06:00;;;;;;;12.23;3.47;;;3.60;98.00;;;;;;5083825;28;20244;-78
2022/05/08 04:08:27;;;;;;;10.77;3.33;;;3.60;98.20;;;;;;5080214;28;20721;-77
2022/05/08 04:10:56;;;;;;;14.83;4.13;;;3.70;98.50;;;;;;5076316;28;20217;-78
2022/05/08 04:13:22;;;;;;;9.33;3.43;;;3.70;98.70;;;;;;5083234;28;20751;-78
2022/05/08 04:18:33;;;;;;;9.30;3.30;;;3.70;98.70;;;;;;5072854;28;20224;-78
2022/05/08 04:21:00;;;;;;;7.37;3.10;;;3.80;98.60;;;;;;5084225;28;20220;-77
2022/05/08 04:26:12;;;;;;;12.10;3.67;;;3.80;98.10;;;;;;5072743;28;20248;-77
2022/05/08 04:28:39;;;;;;;8.23;3.20;;;3.90;98.30;;;;;;5075574;28;20234;-78
2022/05/08 04:31:06;;;;;;;10.33;3.20;;;3.90;98.50;;;;;;5082753;28;20212;-78
2022/05/08 04:33:32;;;;;;;8.57;3.87;;;3.90;98.60;;;;;;5077677;28;20653;-78
2022/05/08 04:35:59;;;;;;;9.53;3.27;;;4.00;98.80;;;;;;5078657;28;20225;-78
2022/05/08 04:38:25;;;;;;;9.73;3.30;;;4.00;98.80;;;;;;5078066;28;20232;-77
2022/05/08 04:40:52;;;;;;;8.83;3.47;;;4.10;98.90;;;;;;5082190;28;20242;-78
2022/05/08 04:43:20;;;;;;;11.57;3.77;;;4.20;99.00;;;;;;5082051;28;20236;-77
2022/05/08 04:45:47;;;;;;;10.90;3.70;;;4.20;99.10;;;;;;5082632;28;20706;-77
2022/05/08 04:48:14;;;;;;;11.47;4.03;;;4.30;99.00;;;;;;5085288;28;20232;-78
2022/05/08 04:50:41;;;;;;;14.50;4.13;;;4.30;98.90;;;;;;5083110;28;20234;-77
2022/05/08 04:53:07;;;;;;;7.97;3.43;;;4.30;98.90;;;;;;5081239;28;20961;-77
2022/05/08 04:55:34;;;;;;;12.27;4.30;;;4.40;98.90;;;;;;5080703;28;20234;-77
2022/05/08 04:58:01;;;;;;;14.73;4.23;;;4.40;99.00;;;;;;5080707;28;20216;-77
2022/05/08 05:00:29;;;;;;;12.83;5.13;;;4.50;99.50;;;;;;5077233;28;20554;-77
2022/05/08 05:02:56;;;;;;;14.50;3.83;;;4.60;99.20;;;;;;5078692;28;20214;-76
2022/05/08 05:05:23;;;;;;;12.00;4.63;;;4.60;99.10;;;;;;5083214;28;20308;-75
2022/05/08 05:07:49;;;;;;;13.73;4.30;;;4.70;99.20;;;;;;5079050;28;20210;-77
2022/05/08 05:10:16;;;;;;;8.83;3.33;;;4.70;99.20;;;;;;5086632;28;20221;-77
2022/05/08 05:12:43;;;;;;;11.17;4.13;;;4.80;99.20;;;;;;5080162;28;20218;-77
2022/05/08 05:15:11;;;;;;;15.17;5.63;;;4.80;99.30;;;;;;5079399;28;20221;-77
2022/05/08 05:17:39;;;;;;;10.50;3.87;;;4.90;99.40;;;;;;5083438;28;20224;-77
2022/05/08 05:20:07;;;;;;;8.60;3.40;;;5.00;99.30;;;;;;5082618;28;20769;-77
2022/05/08 05:22:35;;;;;;;10.77;4.17;;;5.00;99.40;;;;;;5081870;28;20552;-77
2022/05/08 05:25:03;;;;;;;11.67;3.30;;;5.10;99.30;;;;;;5076424;28;20218;-76
2022/05/08 05:27:30;;;;;;;12.57;4.23;;;5.10;99.40;;;;;;5081136;28;20225;-76
2022/05/08 05:29:57;;;;;;;11.17;4.17;;;5.20;99.30;;;;;;5083892;28;20219;-76
2022/05/08 05:32:24;;;;;;;12.10;3.70;;;5.30;99.30;;;;;;5078475;28;20231;-77
2022/05/08 05:34:52;;;;;;;10.27;3.37;;;5.30;99.30;;;;;;5071098;28;20214;-77
2022/05/08 05:37:19;;;;;;;11.67;4.00;;;5.40;99.40;;;;;;5082280;28;20262;-76
2022/05/08 05:39:45;;;;;;;14.73;5.10;;;5.50;99.50;;;;;;5078051;28;20211;-77
2022/05/08 05:42:12;;;;;;;15.97;3.47;;;5.50;99.60;;;;;;5081111;28;20789;-77
2022/05/08 05:44:39;;;;;;;12.37;3.00;;;5.60;99.50;;;;;;5077895;28;20233;-77
2022/05/08 05:49:51;;;;;;;10.77;3.90;;;5.80;99.30;;;;;;5082050;28;20350;-78
2022/05/08 05:52:18;;;;;;;9.40;3.70;;;5.90;99.30;;;;;;5081720;28;20226;-77
2022/05/08 05:54:45;;;;;;;14.47;3.97;;;5.90;99.20;;;;;;5078847;28;20219;-75
2022/05/08 05:57:11;;;;;;;13.03;3.73;;;6.00;99.20;;;;;;5080759;28;20558;-75
2022/05/08 05:59:38;;;;;;;13.03;3.07;;;6.10;99.40;;;;;;5079284;28;20206;-75
2022/05/08 06:02:06;;;;;;;19.10;3.40;;;6.20;99.10;;;;;;5082945;28;20214;-75
2022/05/08 06:04:32;;;;;;;12.80;3.60;;;6.30;99.00;;;;;;5075613;28;20221;-76
2022/05/08 06:07:00;;;;;;;15.30;2.93;;;6.40;98.90;;;;;;5075463;28;20220;-76
2022/05/08 06:09:27;;;;;;;12.63;3.53;;;6.50;98.70;;;;;;5074225;28;20595;-75
2022/05/08 06:11:54;;;;;;;14.20;7.83;;;6.60;98.70;;;;;;5074818;28;20223;-75
2022/05/08 06:14:21;;;;;;;17.10;3.23;;;6.70;98.60;;;;;;5078202;28;20245;-75
2022/05/08 06:16:47;;;;;;;9.60;3.10;;;6.80;98.40;;;;;;5082701;28;20704;-75
2022/05/08 06:19:14;;;;;;;13.10;3.33;;;6.90;98.20;;;;;;5076867;28;20218;-75
2022/05/08 06:21:41;;;;;;;13.10;3.10;;;7.00;98.10;;;;;;5081599;28;20217;-75
2022/05/08 06:24:09;;;;;;;10.03;2.67;;;7.10;98.00;;;;;;5078926;28;20231;-75
2022/05/08 06:26:36;;;;;;;14.07;3.30;;;7.10;97.90;;;;;;5074201;28;20223;-75
2022/05/08 06:29:03;;;;;;;17.83;3.60;;;7.20;97.80;;;;;;5080736;28;20348;-75
2022/05/08 06:31:29;;;;;;;13.77;3.27;;;7.30;97.70;;;;;;5079765;28;20222;-75
2022/05/08 06:33:56;;;;;;;18.17;3.10;;;7.40;97.50;;;;;;5075061;28;20237;-75
2022/05/08 06:36:24;;;;;;;12.53;3.80;;;7.40;97.40;;;;;;5075871;28;20218;-76
2022/05/08 06:38:50;;;;;;;11.23;3.13;;;7.50;97.50;;;;;;5098942;28;20221;-75
2022/05/08 06:41:19;;;;;;;16.20;3.50;;;7.60;97.70;;;;;;5078617;28;20222;-75
2022/05/08 06:43:45;;;;;;;13.30;3.23;;;7.90;97.60;;;;;;5077982;28;20223;-75
2022/05/08 06:46:13;;;;;;;10.63;3.03;;;8.10;97.40;;;;;;5079142;28;20225;-76
2022/05/08 06:48:40;;;;;;;12.60;3.37;;;8.30;97.00;;;;;;5080158;28;20313;-76
2022/05/08 06:51:07;;;;;;;13.10;3.60;;;8.60;96.50;;;;;;5078423;28;20694;-76
2022/05/08 06:53:33;;;;;;;12.50;4.70;;;8.70;96.10;;;;;;5078528;28;20301;-76
2022/05/08 06:56:00;;;;;;;11.40;3.40;;;8.90;95.60;;;;;;5080295;28;20339;-75
2022/05/08 06:58:28;;;;;;;15.27;3.47;;;9.00;95.80;;;;;;5073117;28;20293;-78
2022/05/08 07:03:42;;;;;;;24.70;8.43;;;9.30;95.70;;;;;;5085220;28;20240;-79
2022/05/08 07:06:08;;;;;;;15.03;5.10;;;9.60;95.70;;;;;;5080309;28;20185;-77
2022/05/08 07:08:35;;;;;;;10.63;3.03;;;9.90;94.90;;;;;;5082949;28;20314;-78
2022/05/08 07:11:02;;;;;;;11.30;2.87;;;10.20;95.10;;;;;;5081720;28;20219;-77
2022/05/08 07:13:32;;;;;;;14.67;2.57;;;10.60;94.70;;;;;;5079349;28;20199;-77
2022/05/08 07:15:59;;;;;;;14.23;3.33;;;11.10;94.20;;;;;;5081077;28;20559;-78
2022/05/08 07:18:26;;;;;;;9.97;3.10;;;11.70;93.60;;;;;;5079829;28;20412;-78
2022/05/08 07:20:52;;;;;;;14.10;3.47;;;12.10;92.90;;;;;;5081657;28;20233;-77
2022/05/08 07:23:19;;;;;;;14.20;4.33;;;12.60;91.90;;;;;;5081228;28;20920;-80
2022/05/08 07:25:47;;;;;;;11.90;3.43;;;13.10;91.50;;;;;;5083902;28;20538;-80
2022/05/08 07:28:13;;;;;;;8.67;2.80;;;13.60;91.10;;;;;;5084984;28;20791;-79
2022/05/08 07:30:44;;;;;;;9.93;2.90;;;14.20;90.40;;;;;;5075065;28;20257;-80
2022/05/08 07:33:10;;;;;;;7.70;2.43;;;14.70;87.20;;;;;;5075918;28;20888;-80
2022/05/08 07:38:24;;;;;;;11.07;2.90;;;15.60;83.70;;;;;;5098633;28;20191;-79
2022/05/08 07:40:51;;;;;;;12.23;2.93;;;15.90;81.20;;;;;;5075840;28;21164;-80
2022/05/08 07:43:18;;;;;;;15.30;8.57;;;16.10;81.50;;;;;;5083610;28;20259;-78
2022/05/08 07:45:46;;;;;;;10.83;3.23;;;16.50;80.00;;;;;;5080607;28;20198;-79
2022/05/08 07:48:13;;;;;;;11.97;4.27;;;16.90;78.30;;;;;;5082208;28;20207;-81
2022/05/08 07:50:40;;;;;;;9.35;2.67;;;17.20;77.40;;;;;;5082200;28;20798;-80
2022/05/08 07:53:06;;;;;;;8.55;2.72;;;17.50;75.70;;;;;;5077556;28;20205;-81
2022/05/08 07:55:33;;;;;;;19.67;7.88;;;17.70;74.70;;;;;;5076640;28;20511;-80
2022/05/08 07:58:00;;;;;;;11.35;3.35;;;17.90;72.60;;;;;;5081965;28;20207;-81
2022/05/08 08:00:30;;;;;;;8.77;2.73;;;18.00;71.70;;;;;;5072744;28;20276;-80
2022/05/08 08:02:58;;;;;;;8.82;2.10;;;18.20;72.00;;;;;;5074798;28;20191;-79
2022/05/08 08:05:27;;;;;;;8.20;2.55;;;18.40;70.50;;;;;;5078593;28;20205;-77
2022/05/08 08:07:55;;;;;;;10.57;2.97;;;18.70;70.30;;;;;;5079031;28;20218;-79
2022/05/08 08:10:22;;;;;;;13.43;2.88;;;18.90;69.10;;;;;;5082441;28;20219;-80
2022/05/08 08:12:49;;;;;;;8.50;2.75;;;19.20;68.20;;;;;;5077544;28;20539;-78
2022/05/08 08:15:15;;;;;;;9.13;3.03;;;19.50;68.10;;;;;;5079042;28;20565;-78
2022/05/08 08:17:42;;;;;;;9.73;2.88;;;19.70;66.60;;;;;;5075610;28;20276;-78
2022/05/08 08:20:11;;;;;;;9.25;2.45;;;20.00;66.60;;;;;;5072498;28;20215;-78
2022/05/08 08:22:38;;;;;;;8.07;2.28;;;20.30;65.60;;;;;;5079101;28;20206;-78
2022/05/08 08:25:05;;;;;;;9.20;2.50;;;20.70;64.80;;;;;;5072972;28;20287;-78
2022/05/08 08:27:33;;;;;;;9.93;2.72;;;20.90;63.30;;;;;;5080322;28;20289;-78
2022/05/08 08:30:01;;;;;;;10.10;3.20;;;21.10;59.60;;;;;;5075964;28;20222;-78
2022/05/08 08:32:28;;;;;;;11.77;2.78;;;21.20;59.90;;;;;;5072025;28;20218;-77
2022/05/08 08:34:55;;;;;;;11.35;2.90;;;21.20;60.70;;;;;;5069494;28;20250;-78
2022/05/08 08:37:23;;;;;;;7.55;2.85;;;21.30;59.50;;;;;;5080856;28;20261;-77
2022/05/08 08:39:49;;;;;;;10.32;2.63;;;21.30;58.70;;;;;;5073255;28;20218;-77
2022/05/08 08:42:27;;;;;;;8.05;2.92;;;21.30;59.00;;;;;;5074518;28;20223;-77
2022/05/08 08:47:50;;;;;;;10.38;2.50;;;21.40;56.90;;;;;;5070716;28;20272;-77
2022/05/08 08:50:20;;;;;;;9.20;2.78;;;21.50;57.20;;;;;;5071734;28;20231;-77
2022/05/08 08:52:48;;;;;;;6.72;2.45;;;21.60;57.60;;;;;;5072239;28;20226;-77
2022/05/08 08:55:16;;;;;;;11.50;3.20;;;21.80;57.30;;;;;;5078452;28;20233;-77
2022/05/08 08:57:44;;;;;;;8.95;2.83;;;22.00;57.60;;;;;;5081484;28;20703;-78
2022/05/08 09:00:11;;;;;;;7.95;2.55;;;22.20;56.90;;;;;;5083296;28;20802;-76
2022/05/08 09:02:38;;;;;;;9.90;2.70;;;22.40;56.60;;;;;;5074717;28;20255;-79
2022/05/08 09:05:07;;;;;;;9.13;2.58;;;22.60;55.80;;;;;;5089073;28;20805;-79
2022/05/08 09:07:41;;;;;;;7.85;2.75;;;22.80;56.20;;;;;;5088908;28;20326;-80
2022/05/08 09:10:15;;;;;;;8.48;3.05;;;23.10;54.20;;;;;;5089405;28;20214;-80
2022/05/08 09:12:44;;;;;;;9.02;3.20;;;23.40;53.70;;;;;;5077154;28;20254;-77
2022/05/08 09:15:21;;;;;;;7.38;2.55;;;23.60;53.30;;;;;;5080771;28;20302;-79
2022/05/08 09:17:51;;;;;;;8.57;2.45;;;23.90;52.60;;;;;;5082841;28;20289;-79
2022/05/08 09:20:29;;;;;;;8.15;2.33;;;24.00;53.50;;;;;;5070394;28;20600;-79
2022/05/08 09:23:10;;;;;;;7.90;3.15;;;24.00;50.90;;;;;;5079548;28;20215;-79
2022/05/08 09:26:00;;;;;;;6.97;2.40;;;24.10;52.70;;;;;;5084107;28;20223;-78
2022/05/08 09:28:28;;;;;;;6.82;2.55;;;24.10;52.30;;;;;;5080561;28;20846;-79
2022/05/08 09:31:00;;;;;;;7.72;2.65;;;24.00;51.30;;;;;;5088189;28;20249;-79
2022/05/08 09:33:29;;;;;;;7.45;2.53;;;23.90;50.90;;;;;;5084618;28;20248;-79
2022/05/08 09:35:57;;;;;;;8.48;2.90;;;23.80;50.50;;;;;;5087215;28;20229;-79
2022/05/08 09:38:44;;;;;;;9.52;2.78;;;23.80;51.00;;;;;;5087454;28;20230;-79
2022/05/08 09:41:14;;;;;;;8.50;2.67;;;23.80;50.40;;;;;;5079587;28;20271;-78
2022/05/08 09:43:41;;;;;;;6.47;2.15;;;23.80;50.70;;;;;;5085104;28;20636;-78
2022/05/08 09:46:09;;;;;;;7.57;2.20;;;24.00;50.80;;;;;;5087075;28;20225;-79
2022/05/08 09:48:36;;;;;;;9.90;2.95;;;24.00;50.00;;;;;;5087855;28;20226;-78
2022/05/08 09:51:04;;;;;;;7.72;2.70;;;24.10;49.10;;;;;;5088975;28;21009;-79
2022/05/08 09:53:32;;;;;;;6.15;2.40;;;24.00;48.50;;;;;;5086135;28;20226;-79
2022/05/08 09:56:00;;;;;;;7.28;2.75;;;23.90;48.40;;;;;;5079513;28;20210;-79
2022/05/08 09:58:29;;;;;;;9.52;2.78;;;23.80;48.70;;;;;;5088256;28;20667;-78
2022/05/08 10:00:57;;;;;;;5.97;2.85;;;23.80;48.80;;;;;;5087042;28;20211;-79
2022/05/08 10:03:24;;;;;;;10.20;2.80;;;23.80;49.30;;;;;;5087371;28;20223;-79
2022/05/08 10:05:55;;;;;;;8.65;2.88;;;23.80;47.80;;;;;;5088752;28;20257;-78
2022/05/08 10:08:24;;;;;;;6.95;2.80;;;23.70;48.60;;;;;;5074832;28;20220;-79
2022/05/08 10:13:56;;;;;;;5.90;2.40;;;23.80;48.90;;;;;;5087604;28;20222;-78
2022/05/08 10:16:48;;;;;;;8.02;2.47;;;24.00;47.70;;;;;;5086400;28;20227;-79
2022/05/08 10:19:43;;;;;;;6.88;2.22;;;24.00;46.90;;;;;;5081496;28;20223;-79
2022/05/08 10:22:12;;;;;;;8.88;2.60;;;23.90;47.00;;;;;;5075254;28;20221;-78
2022/05/08 10:24:42;;;;;;;10.07;3.30;;;23.80;47.30;;;;;;5086868;28;20318;-80
2022/05/08 10:27:10;;;;;;;11.82;3.40;;;23.60;47.00;;;;;;5064991;28;20243;-79
2022/05/08 10:29:38;;;;;;;7.13;2.83;;;23.50;47.00;;;;;;5077262;28;20246;-79
2022/05/08 10:32:06;;;;;;;8.15;2.85;;;23.50;46.60;;;;;;5087369;28;20237;-79
2022/05/08 10:34:34;;;;;;;9.55;2.80;;;23.50;46.90;;;;;;5087260;28;20732;-79
2022/05/08 10:37:34;;;;;;;7.18;2.60;;;23.60;46.50;;;;;;5086213;28;20230;-78
2022/05/08 10:40:02;;;;;;;6.05;2.85;;;23.70;47.60;;;;;;5035966;28;20310;-79
2022/05/08 10:42:45;;;;;;;5.35;2.42;;;23.80;46.60;;;;;;5031145;28;20236;-79
2022/05/08 10:45:42;;;;;;;7.97;2.72;;;23.80;45.40;;;;;;5053324;28;20229;-79
2022/05/08 10:48:11;;;;;;;9.48;2.75;;;23.80;45.80;;;;;;5073409;28;20231;-79
2022/05/08 10:50:39;;;;;;;10.30;2.92;;;23.80;46.30;;;;;;5086360;28;20296;-79
2022/05/08 10:53:06;;;;;;;10.18;2.92;;;23.70;45.40;;;;;;5086134;28;20574;-79
2022/05/08 10:55:34;;;;;;;7.28;2.70;;;23.70;45.80;;;;;;5086258;28;20222;-78
2022/05/08 10:58:00;;;;;;;7.55;2.53;;;23.70;46.00;;;;;;5087932;28;20218;-80
2022/05/08 11:00:29;;;;;;;9.13;2.45;;;23.70;45.60;;;;;;5087654;28;20326;-79
2022/05/08 11:02:58;;;;;;;5.68;2.38;;;23.70;45.20;;;;;;5087013;28;20786;-79
2022/05/08 11:05:27;;;;;;;8.05;2.72;;;23.80;44.70;;;;;;5087998;28;20226;-80
2022/05/08 11:07:56;;;;;;;7.85;2.63;;;24.00;45.00;;;;;;5084960;28;20780;-78
2022/05/08 11:10:24;;;;;;;6.47;2.60;;;24.20;44.60;;;;;;5084703;28;20394;-79
2022/05/08 11:12:59;;;;;;;7.68;2.92;;;24.40;45.20;;;;;;5079163;28;20226;-78
2022/05/08 11:15:27;;;;;;;6.65;2.63;;;24.60;43.90;;;;;;5081915;28;21014;-78
2022/05/08 11:18:07;;;;;;;6.78;2.22;;;24.80;44.50;;;;;;5082841;28;20306;-78
2022/05/08 11:20:37;;;;;;;8.02;2.58;;;24.90;43.00;;;;;;5081580;28;20292;-78
2022/05/08 11:23:05;;;;;;;9.98;3.45;;;25.00;44.00;;;;;;5082784;28;20226;-78
2022/05/08 11:25:32;;;;;;;5.88;2.63;;;25.10;44.40;;;;;;5080911;28;20836;-78
2022/05/08 11:27:59;;;;;;;7.40;2.60;;;25.20;44.20;;;;;;5076965;28;20210;-78
2022/05/08 11:30:31;;;;;;;6.28;2.60;;;25.30;43.00;;;;;;5084719;28;20244;-78
2022/05/08 11:36:07;;;;;;;7.07;2.47;;;25.10;43.10;;;;;;5080755;28;20225;-78
2022/05/08 11:38:41;;;;;;;7.00;2.60;;;25.00;43.00;;;;;;5081265;28;20230;-78
2022/05/08 11:41:09;;;;;;;9.10;2.65;;;24.90;41.40;;;;;;5082886;28;20282;-78
2022/05/08 11:43:40;;;;;;;9.60;3.00;;;24.80;42.40;;;;;;5077996;28;20501;-78
2022/05/08 11:46:08;;;;;;;8.95;2.95;;;24.70;42.40;;;;;;5079875;28;20390;-78
2022/05/08 11:48:36;;;;;;;7.30;2.50;;;24.60;42.50;;;;;;5081940;28;20234;-78
2022/05/08 11:51:05;;;;;;;6.57;3.00;;;24.50;43.00;;;;;;5083612;28;20214;-78
2022/05/08 11:53:43;;;;;;;6.55;2.63;;;24.40;43.10;;;;;;5079819;28;20224;-78
2022/05/08 11:56:28;;;;;;;11.57;2.95;;;24.40;42.10;;;;;;5073214;28;20234;-78
2022/05/08 11:58:55;;;;;;;7.63;2.63;;;24.40;43.00;;;;;;5082203;28;20230;-79
2022/05/08 12:01:27;;;;;;;7.35;2.47;;;24.50;43.20;;;;;;5077786;28;20262;-78
2022/05/08 12:03:55;;;;;;;7.13;2.67;;;24.60;42.80;;;;;;5075863;28;20665;-78
2022/05/08 12:06:23;;;;;;;5.90;2.42;;;24.60;42.50;;;;;;5083850;28;20222;-78
2022/05/08 12:08:50;;;;;;;6.18;2.83;;;24.60;41.00;;;;;;5082812;28;20228;-78
2022/05/08 12:11:27;;;;;;;7.05;2.60;;;24.60;41.10;;;;;;5078207;28;20257;-78
2022/05/08 12:14:05;;;;;;;5.18;2.38;;;24.40;41.00;;;;;;5083444;28;20245;-78
2022/05/08 12:16:33;;;;;;;6.13;2.50;;;24.30;41.10;;;;;;5081814;28;20221;-79
2022/05/08 12:19:13;;;;;;;7.68;2.65;;;24.10;41.60;;;;;;5087255;28;20237;-78
2022/05/08 12:21:43;;;;;;;8.02;3.13;;;24.10;42.40;;;;;;5087536;28;20628;-78
2022/05/08 12:24:11;;;;;;;9.35;3.00;;;24.10;43.00;;;;;;5086546;28;20222;-78
2022/05/08 12:26:38;;;;;;;7.38;2.58;;;24.10;42.90;;;;;;5082742;28;20227;-78
2022/05/08 12:29:07;;;;;;;9.63;3.50;;;24.20;42.80;;;;;;5082395;28;20605;-78
2022/05/08 12:31:34;;;;;;;6.55;2.58;;;24.30;42.70;;;;;;5083000;28;20222;-78
2022/05/08 12:34:01;;;;;;;8.32;3.17;;;24.30;42.50;;;;;;5082320;28;20226;-79
2022/05/08 12:36:29;;;;;;;7.93;2.63;;;24.40;42.20;;;;;;5080770;28;20222;-78
2022/05/08 12:38:57;;;;;;;12.70;3.08;;;24.50;42.30;;;;;;5083128;28;20226;-79
2022/05/08 12:41:23;;;;;;;7.55;2.65;;;24.60;41.90;;;;;;5078349;28;20223;-78
2022/05/08 12:43:50;;;;;;;5.85;2.47;;;24.70;42.10;;;;;;5085540;28;20229;-78
2022/05/08 12:46:17;;;;;;;8.98;2.83;;;24.70;41.70;;;;;;5078764;28;20219;-78
2022/05/08 12:48:43;;;;;;;7.43;2.53;;;24.70;41.50;;;;;;5088185;28;20230;-78
2022/05/08 12:51:13;;;;;;;6.47;2.78;;;24.70;41.70;;;;;;5084673;28;20218;-78
2022/05/08 12:53:43;;;;;;;7.65;2.72;;;24.50;41.40;;;;;;5077732;28;20390;-79
2022/05/08 12:56:11;;;;;;;9.68;2.88;;;24.40;41.60;;;;;;5083002;28;20227;-79
2022/05/08 13:01:22;;;;;;;6.30;2.70;;;24.30;42.10;;;;;;5086270;28;20698;-79
2022/05/08 13:03:49;;;;;;;9.82;2.97;;;24.30;41.90;;;;;;5080642;28;20227;-79
2022/05/08 13:06:16;;;;;;;6.28;2.88;;;24.30;41.80;;;;;;5075249;28;20314;-79
2022/05/08 13:08:42;;;;;;;7.15;2.65;;;24.40;41.70;;;;;;5082711;28;20219;-79
2022/05/08 13:11:11;;;;;;;10.50;2.83;;;24.50;41.70;;;;;;5080830;28;20221;-78
2022/05/08 13:13:37;;;;;;;5.20;2.22;;;24.70;41.60;;;;;;5082853;28;20809;-78
2022/05/08 13:16:05;;;;;;;8.70;2.78;;;24.80;42.00;;;;;;5078745;28;20246;-78
2022/05/08 13:18:34;;;;;;;7.05;2.38;;;24.90;41.30;;;;;;5085508;28;20215;-78
2022/05/08 13:21:01;;;;;;;6.45;2.67;;;24.90;41.40;;;;;;5081660;28;20234;-78
2022/05/08 13:23:28;;;;;;;5.85;2.38;;;24.90;40.80;;;;;;5079664;28;20226;-79
2022/05/08 13:25:54;;;;;;;9.32;2.35;;;24.90;40.60;;;;;;5086505;28;20316;-79